createdAt,value
2018-11-04T00:01:16.308Z,3.30
2018-11-04T00:03:45.216Z,3.30
2018-11-04T00:06:14.123Z,3.30
2018-11-04T00:08:43.169Z,3.30
2018-11-04T00:11:12.463Z,3.30
2018-11-04T00:13:40.755Z,3.20
2018-11-04T00:16:09.048Z,3.20
2018-11-04T00:18:37.458Z,3.10
2018-11-04T00:21:05.766Z,3.00
2018-11-04T00:23:34.104Z,3.10
2018-11-04T00:26:02.380Z,3.10
2018-11-04T00:28:30.828Z,3.10
2018-11-04T00:30:59.089Z,3.10
2018-11-04T00:33:27.386Z,3.10
2018-11-04T00:35:56.046Z,3.10
2018-11-04T00:38:24.331Z,3.10
2018-11-04T00:40:52.627Z,3.10
2018-11-04T00:43:20.982Z,3.20
2018-11-04T00:45:49.319Z,3.20
2018-11-04T00:48:17.638Z,3.10
2018-11-04T00:50:45.978Z,3.10
2018-11-04T00:53:14.333Z,3.10
2018-11-04T00:55:52.850Z,3.10
2018-11-04T00:58:21.688Z,3.10
2018-11-04T01:00:49.928Z,3.00
2018-11-04T01:03:18.224Z,3.10
2018-11-04T01:05:46.540Z,3.00
2018-11-04T01:08:15.080Z,3.00
2018-11-04T01:10:43.500Z,2.90
2018-11-04T01:13:11.810Z,2.90
2018-11-04T01:15:40.051Z,2.90
2018-11-04T01:18:08.393Z,2.90
2018-11-04T01:20:36.671Z,2.90
2018-11-04T01:23:04.995Z,2.90
2018-11-04T01:25:33.295Z,2.80
2018-11-04T01:28:01.581Z,2.80
2018-11-04T01:30:29.989Z,2.80
2018-11-04T01:32:58.215Z,2.80
2018-11-04T01:35:26.822Z,2.80
2018-11-04T01:37:55.241Z,2.80
2018-11-04T01:40:23.539Z,2.90
2018-11-04T01:42:52.013Z,2.90
2018-11-04T01:45:20.382Z,2.80
2018-11-04T01:47:48.909Z,2.80
2018-11-04T01:50:17.198Z,2.90
2018-11-04T01:52:45.486Z,2.90
2018-11-04T01:55:13.816Z,3.00
2018-11-04T01:57:42.133Z,3.00
2018-11-04T02:00:13.584Z,2.90
2018-11-04T02:02:42.651Z,2.90
2018-11-04T02:05:11.686Z,2.90
2018-11-04T02:07:39.977Z,2.90
2018-11-04T02:10:09.777Z,2.90
2018-11-04T02:12:38.176Z,2.90
2018-11-04T02:15:07.269Z,2.90
2018-11-04T02:17:35.686Z,2.90
2018-11-04T02:20:03.999Z,2.90
2018-11-04T02:22:32.392Z,2.90
2018-11-04T02:25:00.868Z,2.90
2018-11-04T02:27:29.215Z,2.80
2018-11-04T02:29:57.703Z,2.90
2018-11-04T02:32:26.219Z,2.90
2018-11-04T02:34:54.729Z,2.90
2018-11-04T02:37:23.084Z,2.90
2018-11-04T02:39:51.599Z,2.90
2018-11-04T02:42:20.220Z,2.90
2018-11-04T02:44:48.510Z,2.90
2018-11-04T02:47:16.866Z,2.90
2018-11-04T02:49:45.209Z,2.90
2018-11-04T02:52:13.580Z,2.90
2018-11-04T02:54:41.885Z,2.90
2018-11-04T02:57:10.192Z,2.90
2018-11-04T02:59:38.514Z,2.90
2018-11-04T03:02:07.206Z,2.90
2018-11-04T03:04:35.567Z,2.90
2018-11-04T03:07:04.031Z,2.90
2018-11-04T03:09:32.435Z,2.90
2018-11-04T03:12:00.749Z,2.80
2018-11-04T03:14:29.059Z,2.90
2018-11-04T03:16:57.351Z,2.80
2018-11-04T03:19:25.645Z,2.90
2018-11-04T03:21:53.952Z,2.90
2018-11-04T03:24:22.263Z,3.00
2018-11-04T03:26:50.643Z,3.00
2018-11-04T03:29:18.993Z,3.00
2018-11-04T03:31:47.339Z,3.10
2018-11-04T03:34:15.653Z,3.10
2018-11-04T03:36:44.003Z,3.10
2018-11-04T03:39:12.409Z,3.10
2018-11-04T03:41:41.586Z,3.20
2018-11-04T03:44:10.662Z,3.30
2018-11-04T03:46:39.153Z,3.30
2018-11-04T03:49:08.071Z,3.20
2018-11-04T03:51:36.393Z,3.20
2018-11-04T03:54:04.824Z,3.10
2018-11-04T03:56:33.116Z,3.10
2018-11-04T03:59:01.380Z,3.10
2018-11-04T04:01:29.811Z,3.00
2018-11-04T04:03:58.187Z,3.00
2018-11-04T04:06:26.550Z,3.00
2018-11-04T04:08:54.825Z,3.00
2018-11-04T04:11:23.157Z,3.00
2018-11-04T04:13:51.448Z,3.00
2018-11-04T04:16:19.766Z,2.90
2018-11-04T04:18:48.091Z,2.90
2018-11-04T04:21:16.583Z,2.90
2018-11-04T04:23:44.951Z,2.90
2018-11-04T04:26:13.290Z,3.00
2018-11-04T04:28:42.598Z,3.00
2018-11-04T04:31:10.984Z,3.00
2018-11-04T04:33:39.250Z,3.00
2018-11-04T04:36:07.833Z,3.00
2018-11-04T04:38:36.137Z,3.00
2018-11-04T04:41:04.439Z,2.90
2018-11-04T04:43:32.764Z,3.00
2018-11-04T04:46:01.054Z,3.00
2018-11-04T04:48:29.331Z,3.00
2018-11-04T04:50:57.607Z,3.00
2018-11-04T04:53:26.236Z,3.00
2018-11-04T04:55:56.164Z,3.00
2018-11-04T04:58:24.487Z,3.00
2018-11-04T05:00:53.646Z,3.00
2018-11-04T05:03:22.243Z,3.00
2018-11-04T05:05:50.611Z,3.00
2018-11-04T05:08:18.964Z,3.00
2018-11-04T05:10:47.260Z,3.00
2018-11-04T05:13:15.683Z,3.00
2018-11-04T05:15:44.024Z,3.00
2018-11-04T05:18:12.282Z,3.00
2018-11-04T05:20:40.592Z,3.10
2018-11-04T05:23:08.921Z,3.20
2018-11-04T05:25:37.314Z,3.20
2018-11-04T05:28:06.380Z,3.20
2018-11-04T05:30:34.671Z,3.20
2018-11-04T05:33:02.951Z,3.30
2018-11-04T05:35:31.296Z,3.30
2018-11-04T05:37:59.809Z,3.40
2018-11-04T05:40:28.247Z,3.30
2018-11-04T05:42:56.696Z,3.30
2018-11-04T05:45:25.065Z,3.40
2018-11-04T05:47:53.379Z,3.30
2018-11-04T05:50:21.692Z,3.40
2018-11-04T05:52:49.960Z,3.40
2018-11-04T05:55:18.303Z,3.40
2018-11-04T05:57:46.559Z,3.40
2018-11-04T06:00:14.809Z,3.40
2018-11-04T06:02:43.092Z,3.50
2018-11-04T06:05:11.723Z,3.50
2018-11-04T06:07:40.258Z,3.60
2018-11-04T06:10:08.511Z,3.60
2018-11-04T06:12:37.647Z,3.60
2018-11-04T06:15:06.904Z,3.70
2018-11-04T06:17:35.237Z,3.70
2018-11-04T06:20:03.815Z,3.80
2018-11-04T06:22:32.599Z,3.80
2018-11-04T06:25:00.886Z,3.80
2018-11-04T06:27:29.365Z,3.80
2018-11-04T06:29:57.659Z,3.80
2018-11-04T06:32:25.942Z,3.80
2018-11-04T06:34:54.242Z,3.80
2018-11-04T06:37:22.500Z,3.90
2018-11-04T06:39:50.758Z,4.00
2018-11-04T06:42:19.038Z,4.00
2018-11-04T06:44:47.407Z,4.10
2018-11-04T06:47:15.764Z,4.00
2018-11-04T06:49:44.005Z,4.10
2018-11-04T06:52:12.313Z,4.10
2018-11-04T06:54:40.697Z,4.20
2018-11-04T06:57:09.040Z,4.20
2018-11-04T06:59:37.404Z,4.20
2018-11-04T07:02:05.694Z,4.30
2018-11-04T07:04:33.996Z,4.30
2018-11-04T07:07:02.303Z,4.40
2018-11-04T07:09:30.611Z,4.40
2018-11-04T07:11:58.947Z,4.50
2018-11-04T07:14:27.359Z,4.50
2018-11-04T07:16:55.643Z,4.50
2018-11-04T07:19:23.935Z,4.50
2018-11-04T07:21:52.261Z,4.60
2018-11-04T07:24:20.571Z,4.70
2018-11-04T07:26:49.020Z,4.70
2018-11-04T07:29:17.343Z,4.80
2018-11-04T07:31:45.651Z,4.80
2018-11-04T07:34:14.151Z,4.90
2018-11-04T07:36:42.437Z,4.90
2018-11-04T07:39:12.168Z,5.00
2018-11-04T07:41:40.500Z,5.00
2018-11-04T07:44:09.091Z,5.10
2018-11-04T07:46:37.710Z,5.10
2018-11-04T07:49:06.364Z,5.10
2018-11-04T07:51:34.806Z,5.20
2018-11-04T07:54:03.039Z,5.20
2018-11-04T07:56:31.315Z,5.30
2018-11-04T07:58:59.843Z,5.40
2018-11-04T08:01:28.123Z,5.40
2018-11-04T08:03:56.412Z,5.40
2018-11-04T08:06:24.759Z,5.40
2018-11-04T08:08:53.300Z,5.50
2018-11-04T08:11:21.756Z,5.50
2018-11-04T08:13:50.224Z,5.60
2018-11-04T08:16:18.588Z,5.70
2018-11-04T08:18:46.900Z,5.70
2018-11-04T08:21:15.342Z,5.70
2018-11-04T08:23:44.115Z,5.70
2018-11-04T08:26:12.431Z,5.70
2018-11-04T08:28:40.704Z,5.80
2018-11-04T08:31:08.977Z,5.80
2018-11-04T08:33:37.293Z,5.90
2018-11-04T08:36:05.668Z,6.00
2018-11-04T08:38:34.041Z,6.00
2018-11-04T08:41:02.760Z,6.00
2018-11-04T08:43:31.176Z,6.00
2018-11-04T08:45:59.468Z,6.10
2018-11-04T08:48:27.943Z,6.20
2018-11-04T08:50:56.316Z,6.20
2018-11-04T08:53:24.628Z,6.20
2018-11-04T08:55:52.934Z,6.20
2018-11-04T08:58:21.227Z,6.30
2018-11-04T09:00:49.658Z,6.40
2018-11-04T09:03:17.974Z,6.40
2018-11-04T09:05:46.270Z,6.50
2018-11-04T09:08:14.631Z,6.60
2018-11-04T09:10:42.936Z,6.60
2018-11-04T09:13:17.997Z,6.70
2018-11-04T09:15:46.319Z,6.80
2018-11-04T09:18:14.619Z,6.90
2018-11-04T09:20:43.007Z,7.00
2018-11-04T09:23:11.318Z,7.00
2018-11-04T09:25:39.631Z,7.00
2018-11-04T09:28:08.624Z,7.10
2018-11-04T09:30:37.042Z,7.20
2018-11-04T09:33:05.913Z,7.30
2018-11-04T09:35:34.547Z,7.30
2018-11-04T09:38:02.844Z,7.30
2018-11-04T09:40:31.130Z,7.40
2018-11-04T09:42:59.524Z,7.40
2018-11-04T09:45:27.798Z,7.50
2018-11-04T09:47:56.084Z,7.60
2018-11-04T09:50:24.668Z,7.70
2018-11-04T09:52:59.513Z,7.70
2018-11-04T09:55:27.792Z,7.80
2018-11-04T09:57:56.089Z,7.80
2018-11-04T10:00:24.403Z,7.80
2018-11-04T10:02:52.671Z,7.90
2018-11-04T10:05:21.166Z,7.90
2018-11-04T10:07:49.459Z,8.10
2018-11-04T10:10:17.829Z,8.20
2018-11-04T10:12:46.427Z,8.20
2018-11-04T10:15:14.774Z,8.30
2018-11-04T10:17:43.216Z,8.30
2018-11-04T10:20:12.638Z,8.40
2018-11-04T10:22:41.484Z,8.50
2018-11-04T10:25:11.208Z,8.50
2018-11-04T10:27:40.000Z,8.60
2018-11-04T10:30:10.429Z,8.60
2018-11-04T10:32:38.774Z,8.60
2018-11-04T10:35:07.762Z,8.70
2018-11-04T10:37:36.187Z,8.80
2018-11-04T10:40:05.669Z,8.60
2018-11-04T10:42:34.043Z,8.70
2018-11-04T10:45:02.381Z,8.80
2018-11-04T10:47:30.653Z,8.80
2018-11-04T10:49:59.048Z,8.90
2018-11-04T10:52:27.346Z,9.00
2018-11-04T10:54:55.719Z,9.10
2018-11-04T10:57:24.615Z,9.20
2018-11-04T10:59:52.961Z,9.20
2018-11-04T11:02:21.409Z,9.20
2018-11-04T11:04:49.829Z,9.20
2018-11-04T11:07:18.287Z,9.20
2018-11-04T11:09:46.670Z,9.20
2018-11-04T11:12:14.977Z,9.20
2018-11-04T11:14:43.270Z,9.20
2018-11-04T11:17:11.561Z,9.30
2018-11-04T11:19:39.833Z,9.30
2018-11-04T11:22:08.775Z,9.40
2018-11-04T11:24:37.134Z,9.40
2018-11-04T11:27:05.440Z,9.40
2018-11-04T11:29:33.748Z,9.50
2018-11-04T11:32:02.184Z,9.50
2018-11-04T11:34:30.581Z,9.60
2018-11-04T11:36:58.969Z,9.70
2018-11-04T11:39:27.558Z,9.70
2018-11-04T11:41:56.149Z,9.80
2018-11-04T11:44:24.777Z,9.80
2018-11-04T11:46:53.105Z,9.70
2018-11-04T11:49:21.848Z,9.80
2018-11-04T11:51:50.376Z,9.80
2018-11-04T11:54:18.718Z,9.80
2018-11-04T11:56:47.100Z,9.90
2018-11-04T11:59:15.503Z,10.00
2018-11-04T12:01:43.841Z,10.00
2018-11-04T12:04:12.458Z,10.10
2018-11-04T12:06:40.761Z,10.10
2018-11-04T12:09:09.407Z,10.20
2018-11-04T12:11:38.008Z,10.20
2018-11-04T12:14:06.683Z,10.20
2018-11-04T12:16:34.999Z,10.20
2018-11-04T12:19:03.481Z,10.20
2018-11-04T12:21:31.962Z,10.30
2018-11-04T12:24:00.321Z,10.40
2018-11-04T12:26:28.639Z,10.40
2018-11-04T12:28:56.891Z,10.40
2018-11-04T12:31:25.296Z,10.50
2018-11-04T12:33:53.611Z,10.60
2018-11-04T12:36:21.911Z,10.60
2018-11-04T12:38:50.339Z,10.70
2018-11-04T12:41:18.636Z,10.70
2018-11-04T12:43:46.969Z,10.70
2018-11-04T12:46:15.439Z,10.70
2018-11-04T12:48:43.822Z,10.80
2018-11-04T12:51:12.313Z,10.90
2018-11-04T12:53:40.670Z,10.90
2018-11-04T12:56:08.955Z,10.90
2018-11-04T12:58:37.478Z,11.00
2018-11-04T13:01:05.832Z,11.00
2018-11-04T13:03:34.141Z,11.10
2018-11-04T13:06:02.669Z,11.50
2018-11-04T13:08:30.986Z,11.30
2018-11-04T13:10:59.314Z,11.30
2018-11-04T13:13:27.715Z,11.20
2018-11-04T13:15:56.056Z,11.20
2018-11-04T13:18:24.394Z,11.20
2018-11-04T13:20:52.724Z,11.20
2018-11-04T13:23:21.014Z,11.20
2018-11-04T13:25:49.861Z,11.20
2018-11-04T13:28:18.222Z,11.20
2018-11-04T13:30:46.690Z,11.30
2018-11-04T13:33:15.312Z,11.30
2018-11-04T13:35:43.760Z,11.20
2018-11-04T13:38:12.423Z,11.20
2018-11-04T13:40:40.795Z,11.20
2018-11-04T13:43:09.189Z,11.30
2018-11-04T13:45:37.557Z,11.30
2018-11-04T13:48:06.144Z,11.30
2018-11-04T13:50:34.497Z,11.30
2018-11-04T13:53:02.918Z,11.30
2018-11-04T13:55:31.248Z,11.30
2018-11-04T13:57:59.660Z,11.40
2018-11-04T14:00:28.146Z,11.40
2018-11-04T14:02:56.484Z,11.40
2018-11-04T14:05:24.891Z,11.40
2018-11-04T14:07:53.299Z,11.40
2018-11-04T14:10:21.680Z,11.40
2018-11-04T14:12:50.278Z,11.40
2018-11-04T14:15:18.679Z,11.40
2018-11-04T14:17:46.991Z,11.30
2018-11-04T14:20:16.143Z,11.30
2018-11-04T14:22:44.468Z,11.30
2018-11-04T14:25:13.131Z,11.30
2018-11-04T14:27:41.497Z,11.30
2018-11-04T14:30:12.088Z,11.40
2018-11-04T14:32:40.615Z,11.30
2018-11-04T14:35:09.931Z,11.40
2018-11-04T14:37:38.978Z,11.30
2018-11-04T14:40:08.582Z,11.30
2018-11-04T14:42:36.903Z,11.30
2018-11-04T14:45:05.900Z,11.20
2018-11-04T14:47:34.179Z,11.20
2018-11-04T14:50:02.507Z,11.10
2018-11-04T14:52:30.840Z,11.10
2018-11-04T14:54:59.258Z,11.00
2018-11-04T14:57:27.991Z,11.00
2018-11-04T14:59:56.723Z,11.00
2018-11-04T15:02:25.090Z,11.00
2018-11-04T15:04:53.925Z,10.90
2018-11-04T15:07:22.314Z,10.90
2018-11-04T15:09:50.576Z,10.80
2018-11-04T15:12:18.925Z,10.80
2018-11-04T15:14:47.331Z,10.80
2018-11-04T15:17:16.011Z,10.80
2018-11-04T15:19:44.342Z,10.80
2018-11-04T15:22:12.633Z,10.80
2018-11-04T15:24:40.996Z,10.80
2018-11-04T15:27:09.311Z,10.80
2018-11-04T15:29:37.628Z,10.70
2018-11-04T15:32:06.112Z,10.70
2018-11-04T15:34:34.675Z,10.70
2018-11-04T15:37:02.963Z,10.70
2018-11-04T15:39:31.463Z,10.70
2018-11-04T15:41:59.738Z,10.70
2018-11-04T15:44:28.133Z,10.70
2018-11-04T15:46:56.499Z,10.70
2018-11-04T15:49:24.750Z,10.70
2018-11-04T15:51:53.051Z,10.70
2018-11-04T15:54:21.360Z,10.70
2018-11-04T15:56:49.645Z,10.70
2018-11-04T15:59:18.024Z,10.70
2018-11-04T16:01:46.356Z,10.70
2018-11-04T16:04:14.681Z,10.70
2018-11-04T16:06:43.035Z,10.70
2018-11-04T16:09:11.626Z,10.70
2018-11-04T16:11:40.243Z,10.70
2018-11-04T16:14:09.509Z,10.70
2018-11-04T16:16:38.914Z,10.60
2018-11-04T16:19:07.288Z,10.60
2018-11-04T16:21:35.694Z,10.60
2018-11-04T16:24:04.087Z,10.60
2018-11-04T16:26:32.411Z,10.60
2018-11-04T16:29:00.931Z,10.70
2018-11-04T16:31:32.232Z,10.70
2018-11-04T16:34:00.579Z,10.70
2018-11-04T16:36:28.887Z,10.60
2018-11-04T16:38:57.166Z,10.70
2018-11-04T16:41:25.503Z,10.60
2018-11-04T16:43:53.908Z,10.60
2018-11-04T16:46:22.195Z,10.70
2018-11-04T16:48:50.496Z,10.60
2018-11-04T16:51:18.944Z,10.60
2018-11-04T16:53:47.338Z,10.70
2018-11-04T16:56:15.820Z,10.70
2018-11-04T16:58:44.274Z,10.70
2018-11-04T17:01:12.618Z,10.80
2018-11-04T17:03:40.968Z,10.80
2018-11-04T17:06:09.319Z,10.80
2018-11-04T17:08:37.648Z,10.80
2018-11-04T17:11:05.980Z,10.80
2018-11-04T17:13:34.251Z,10.70
2018-11-04T17:16:02.559Z,10.70
2018-11-04T17:18:30.845Z,10.70
2018-11-04T17:20:59.143Z,10.70
2018-11-04T17:23:27.578Z,10.70
2018-11-04T17:25:55.929Z,10.70
2018-11-04T17:28:24.801Z,10.60
2018-11-04T17:30:53.157Z,10.60
2018-11-04T17:33:21.601Z,10.60
2018-11-04T17:35:50.681Z,10.60
2018-11-04T17:38:19.126Z,10.60
2018-11-04T17:40:47.491Z,10.60
2018-11-04T17:43:15.840Z,10.60
2018-11-04T17:45:44.171Z,10.60
2018-11-04T17:48:12.557Z,10.70
2018-11-04T17:50:40.911Z,10.70
2018-11-04T17:53:09.318Z,10.70
2018-11-04T17:55:38.119Z,10.60
2018-11-04T17:58:06.472Z,10.60
2018-11-04T18:00:34.875Z,10.60
2018-11-04T18:03:03.188Z,10.50
2018-11-04T18:05:32.453Z,10.50
2018-11-04T18:08:01.245Z,10.50
2018-11-04T18:10:29.766Z,10.50
2018-11-04T18:12:58.226Z,10.50
2018-11-04T18:15:26.668Z,10.50
2018-11-04T18:17:54.994Z,10.50
2018-11-04T18:20:23.306Z,10.50
2018-11-04T18:22:51.687Z,10.50
2018-11-04T18:25:20.236Z,10.50
2018-11-04T18:27:48.609Z,10.50
2018-11-04T18:30:22.777Z,10.50
2018-11-04T18:32:57.457Z,10.50
2018-11-04T18:35:25.896Z,10.50
2018-11-04T18:37:55.185Z,10.60
2018-11-04T18:40:24.335Z,10.60
2018-11-04T18:42:53.636Z,10.60
2018-11-04T18:45:22.056Z,10.60
2018-11-04T18:47:50.363Z,10.60
2018-11-04T18:50:18.811Z,10.60
2018-11-04T18:52:47.391Z,10.60
2018-11-04T18:55:15.649Z,10.50
2018-11-04T18:57:44.656Z,10.50
2018-11-04T19:00:16.825Z,10.50
2018-11-04T19:02:46.140Z,10.60
2018-11-04T19:05:14.759Z,10.50
2018-11-04T19:07:43.134Z,10.60
2018-11-04T19:10:13.195Z,10.50
2018-11-04T19:12:48.469Z,10.50
2018-11-04T19:15:16.940Z,10.60
2018-11-04T19:17:45.630Z,10.50
2018-11-04T19:20:15.638Z,10.50
2018-11-04T19:22:44.381Z,10.50
2018-11-04T19:25:14.036Z,10.50
2018-11-04T19:27:42.632Z,10.50
2018-11-04T19:30:14.629Z,10.40
2018-11-04T19:32:43.831Z,10.40
2018-11-04T19:35:13.336Z,10.40
2018-11-04T19:37:42.147Z,10.50
2018-11-04T19:43:13.806Z,10.50
2018-11-04T19:45:50.062Z,10.50
2018-11-04T19:48:40.119Z,10.50
2018-11-04T19:51:16.723Z,10.50
2018-11-04T19:53:48.376Z,10.50
2018-11-04T19:56:17.457Z,10.50
2018-11-04T20:01:48.448Z,10.50
2018-11-04T20:04:26.339Z,10.50
2018-11-04T20:06:59.795Z,10.50
2018-11-04T20:09:28.126Z,10.40
2018-11-04T20:11:56.436Z,10.40
2018-11-04T20:14:25.155Z,10.40
2018-11-04T20:16:55.215Z,10.40
2018-11-04T20:19:29.430Z,10.40
2018-11-04T20:21:59.684Z,10.40
2018-11-04T20:24:34.212Z,10.40
2018-11-04T20:27:02.669Z,10.40
2018-11-04T20:29:31.050Z,10.40
2018-11-04T20:32:05.550Z,10.40
2018-11-04T20:34:34.739Z,10.40
2018-11-04T20:37:03.067Z,10.40
2018-11-04T20:39:36.865Z,10.40
2018-11-04T20:42:05.564Z,10.40
2018-11-04T20:44:38.116Z,10.40
2018-11-04T20:47:06.429Z,10.40
2018-11-04T20:49:40.118Z,10.40
2018-11-04T20:52:08.770Z,10.40
2018-11-04T20:54:37.070Z,10.40
2018-11-04T20:57:10.660Z,10.40
2018-11-04T20:59:39.039Z,10.30
2018-11-04T21:02:07.447Z,10.30
2018-11-04T21:04:35.813Z,10.20
2018-11-04T21:07:04.248Z,10.20
2018-11-04T21:09:33.215Z,10.10
2018-11-04T21:12:01.867Z,10.10
2018-11-04T21:14:30.695Z,10.10
2018-11-04T21:16:59.188Z,10.00
2018-11-04T21:19:27.542Z,10.00
2018-11-04T21:21:55.928Z,10.00
2018-11-04T21:24:24.578Z,10.00
2018-11-04T21:26:53.135Z,9.90
2018-11-04T21:29:21.716Z,9.80
2018-11-04T21:31:49.904Z,9.80
2018-11-04T21:34:18.818Z,9.80
2018-11-04T21:36:47.102Z,9.70
2018-11-04T21:39:15.437Z,9.70
2018-11-04T21:41:44.744Z,9.60
2018-11-04T21:44:13.281Z,9.50
2018-11-04T21:46:41.409Z,9.50
2018-11-04T21:49:09.934Z,9.40
2018-11-04T21:51:38.262Z,9.30
2018-11-04T21:54:06.811Z,9.30
2018-11-04T21:56:35.455Z,9.30
2018-11-04T21:59:04.097Z,9.30
2018-11-04T22:01:32.439Z,9.20
2018-11-04T22:04:01.028Z,9.20
2018-11-04T22:06:29.132Z,9.20
2018-11-04T22:08:57.472Z,9.20
2018-11-04T22:11:25.867Z,9.10
2018-11-04T22:13:55.332Z,9.20
2018-11-04T22:16:23.694Z,9.10
2018-11-04T22:18:52.020Z,9.10
2018-11-04T22:21:20.463Z,9.10
2018-11-04T22:23:48.829Z,9.10
2018-11-04T22:26:17.150Z,9.00
2018-11-04T22:28:45.480Z,9.00
2018-11-04T22:31:13.775Z,8.90
2018-11-04T22:33:42.287Z,8.90
2018-11-04T22:36:11.336Z,8.90
2018-11-04T22:38:39.792Z,8.90
2018-11-04T22:41:08.892Z,8.90
2018-11-04T22:43:37.286Z,8.80
2018-11-04T22:46:05.743Z,8.80
2018-11-04T22:48:34.086Z,8.80
2018-11-04T22:51:02.433Z,8.80
2018-11-04T22:53:30.775Z,8.70
2018-11-04T22:55:59.358Z,8.70
2018-11-04T22:58:27.687Z,8.70
2018-11-04T23:00:59.644Z,8.70
2018-11-04T23:03:28.055Z,8.70
2018-11-04T23:05:56.782Z,8.70
2018-11-04T23:08:25.247Z,8.70
2018-11-04T23:10:54.448Z,8.70
2018-11-04T23:13:22.845Z,8.60
2018-11-04T23:15:51.142Z,8.60
2018-11-04T23:18:19.497Z,8.60
2018-11-04T23:20:47.839Z,8.60
2018-11-04T23:23:16.409Z,8.50
2018-11-04T23:25:44.776Z,8.40
2018-11-04T23:28:13.226Z,8.40
2018-11-04T23:30:41.622Z,8.40
2018-11-04T23:33:09.962Z,8.40
2018-11-04T23:35:39.217Z,8.40
2018-11-04T23:38:07.480Z,8.40
2018-11-04T23:40:35.795Z,8.40
2018-11-04T23:43:04.151Z,8.40
2018-11-04T23:45:32.468Z,8.40
2018-11-04T23:48:00.793Z,8.40
2018-11-04T23:50:29.112Z,8.40
2018-11-04T23:52:57.403Z,8.40
2018-11-04T23:55:25.867Z,8.40
2018-11-04T23:57:54.263Z,8.30
